LFKC/CLY METAR and TAF weather

Enter ICAO airport designator
Station Type Date Time Source
LFKC METAR 2020/04/05 19:00 UTC NOAA

LFKC 051900Z AUTO 15009KT CAVOK 11/04 Q1020 NOSIG


Station Type Date Time Source
LFKC Decoded METAR 2020/04/05 19:00 UTC NOAA

Calvi, France (LFKC) 42-32N 008-48E 58M
Apr 05, 2020 - 03:00 PM EDT / 2020.04.05 1900 UTC
Wind: from the SSE (150 degrees) at 10 MPH (9 KT):0
Visibility: greater than 7 mile(s):0
Temperature: 51 F (11 C)
Dew Point: 39 F (4 C)
Relative Humidity: 61%
Pressure (altimeter): 30.12 in. Hg (1020 hPa)
ob: LFKC 051900Z AUTO 15009KT CAVOK 11/04 Q1020 NOSIG
cycle: 19

Station Type Date Time Source
LFKC TAF 2020/04/05 15:23 UTC NOAA

TAF LFKC 051400Z 0515/0615 01012G23KT CAVOK TX20/0612Z TN06/0603Z
BECMG 0517/0519 18006KT
BECMG 0609/0611 35012KT

Example: see airport list